Gresham, Oregon
Current Conditions -  °F | °C
As of 5:53 AM on Wednesday 22 Oct 2014 (Local Time) from KTTD Reporting Station
Overcast Overcast  
Wind Chill: 56°   Ceiling: 3700
Heat Index: 56°   Visibility: 10mi
Dew Point: 52°   Wind: 7mph
Humidity: 87%   Direction: 70°ENE
Pressure: 29.79"   Gusts: NA
Location:  45.51°N, 122.43°W
Report Text: KTTD 221253Z AUTO 07006KT 10SM OVC037 13/11 A2979 RMK AO2 RAB11E21 SLP088 P0000 T01330111
Loading
Personal Weather Stations






























Interactive Weather Map
Tropical Storm Tracking
New forecast layout! Learn more

10-Day Weather Forecast

Advertisements
Track Severe Weather on mobile